Lake Quivira, Kansas
Current Conditions -  °F | °C
As of 1:53 AM on Sunday 26 Oct 2014 (Local Time) from KOJC Reporting Station
Clear Clear  
Wind Chill: 62°   Ceiling: Unl
Heat Index: 62°   Visibility: 10mi
Dew Point: 55°   Wind: 8mph
Humidity: 78%   Direction: 120°ESE
Pressure: 29.98"   Gusts: NA
Location:  39.0067°N, 94.7872°W
Report Text: KOJC 260653Z AUTO 12007KT 10SM CLR 17/13 A2998 RMK AO2 SLP143 T01670128
Loading
Personal Weather Stations






























Interactive Weather Map New forecast layout! Learn more

10-Day Weather Forecast

Advertisements
Track Severe Weather on mobile